createdAt,value
2019-05-09T00:01:07.140Z,3.53
2019-05-09T00:03:35.906Z,3.40
2019-05-09T00:06:05.145Z,3.80
2019-05-09T00:08:34.125Z,3.23
2019-05-09T00:11:03.664Z,3.87
2019-05-09T00:13:34.093Z,3.97
2019-05-09T00:16:03.653Z,4.27
2019-05-09T00:18:33.640Z,4.10
2019-05-09T00:21:10.833Z,4.10
2019-05-09T00:23:39.601Z,4.27
2019-05-09T00:26:08.354Z,5.17
2019-05-09T00:28:39.217Z,4.63
2019-05-09T00:31:14.138Z,4.73
2019-05-09T00:33:48.106Z,4.40
2019-05-09T00:36:17.421Z,4.73
2019-05-09T00:38:46.224Z,5.03
2019-05-09T00:41:15.319Z,5.53
2019-05-09T00:43:49.569Z,4.13
2019-05-09T00:46:27.458Z,4.27
2019-05-09T00:49:05.125Z,4.67
2019-05-09T00:51:33.973Z,4.80
2019-05-09T00:54:04.143Z,5.37
2019-05-09T00:56:33.308Z,4.67
2019-05-09T00:59:04.213Z,4.57
2019-05-09T01:01:34.191Z,5.30
2019-05-09T01:04:04.387Z,5.03
2019-05-09T01:06:33.992Z,5.57
2019-05-09T01:09:04.302Z,5.57
2019-05-09T01:11:33.601Z,4.30
2019-05-09T01:14:03.586Z,4.23
2019-05-09T01:16:33.497Z,6.63
2019-05-09T01:19:03.535Z,4.70
2019-05-09T01:21:33.317Z,4.93
2019-05-09T01:24:03.324Z,4.60
2019-05-09T01:26:33.324Z,4.70
2019-05-09T01:29:04.443Z,4.60
2019-05-09T01:31:33.469Z,4.80
2019-05-09T01:34:09.317Z,4.93
2019-05-09T01:36:55.994Z,5.20
2019-05-09T01:39:24.774Z,5.20
2019-05-09T01:41:53.546Z,5.87
2019-05-09T01:44:23.981Z,5.50
2019-05-09T01:46:54.077Z,4.67
2019-05-09T01:49:23.385Z,4.73
2019-05-09T01:51:53.720Z,4.93
2019-05-09T01:54:24.287Z,4.60
2019-05-09T01:56:53.747Z,4.50
2019-05-09T01:59:24.289Z,4.47
2019-05-09T02:01:54.132Z,4.30
2019-05-09T02:04:24.324Z,4.13
2019-05-09T02:06:53.854Z,3.90
2019-05-09T02:09:23.442Z,3.83
2019-05-09T02:11:54.584Z,3.83
2019-05-09T02:14:31.005Z,3.63
2019-05-09T02:17:27.045Z,4.23
2019-05-09T02:19:55.782Z,4.10
2019-05-09T02:22:34.745Z,3.57
2019-05-09T02:25:05.954Z,3.63
2019-05-09T02:27:34.791Z,3.37
2019-05-09T02:30:05.801Z,3.57
2019-05-09T02:32:35.517Z,3.07
2019-05-09T02:35:05.805Z,3.53
2019-05-09T02:37:34.565Z,3.33
2019-05-09T02:40:03.816Z,2.93
2019-05-09T02:42:32.642Z,3.60
2019-05-09T02:45:01.445Z,3.57
2019-05-09T02:47:30.196Z,2.73
2019-05-09T02:49:59.456Z,3.20
2019-05-09T02:52:28.825Z,4.00
2019-05-09T02:54:58.467Z,3.67
2019-05-09T02:57:29.367Z,4.10
2019-05-09T03:00:19.952Z,3.43
2019-05-09T03:03:00.124Z,4.07
2019-05-09T03:05:29.623Z,3.50
2019-05-09T03:07:58.810Z,3.40
2019-05-09T03:10:29.306Z,3.80
2019-05-09T03:12:59.425Z,3.70
2019-05-09T03:15:29.333Z,4.30
2019-05-09T03:17:59.948Z,3.90
2019-05-09T03:20:39.361Z,4.47
2019-05-09T03:23:09.274Z,4.03
2019-05-09T03:25:40.727Z,3.90
2019-05-09T03:28:18.148Z,3.60
2019-05-09T03:30:50.072Z,3.80
2019-05-09T03:33:40.693Z,4.33
2019-05-09T03:36:07.912Z,3.87
2019-05-09T03:38:37.750Z,4.17
2019-05-09T03:41:08.499Z,3.30
2019-05-09T03:43:37.849Z,3.90
2019-05-09T03:46:22.118Z,3.83
2019-05-09T03:48:53.913Z,3.50
2019-05-09T03:51:22.768Z,4.27
2019-05-09T03:53:51.628Z,3.37
2019-05-09T03:56:24.625Z,3.57
2019-05-09T03:58:53.517Z,3.30
2019-05-09T04:01:22.638Z,3.57
2019-05-09T04:03:51.393Z,4.10
2019-05-09T04:06:20.219Z,4.10
2019-05-09T04:08:49.057Z,4.03
2019-05-09T04:11:18.536Z,3.60
2019-05-09T04:13:58.214Z,3.80
2019-05-09T04:16:27.674Z,3.70
2019-05-09T04:18:58.111Z,3.73
2019-05-09T04:21:28.008Z,4.47
2019-05-09T04:23:58.459Z,4.07
2019-05-09T04:26:57.499Z,4.10
2019-05-09T04:29:28.319Z,3.67
2019-05-09T04:31:57.485Z,4.27
2019-05-09T04:34:27.524Z,3.90
2019-05-09T04:36:57.581Z,4.20
2019-05-09T04:39:28.219Z,4.20
2019-05-09T04:42:02.962Z,48.47
2019-05-09T04:44:49.606Z,6.53
2019-05-09T04:47:17.363Z,14.93
2019-05-09T04:49:47.922Z,3.80
2019-05-09T04:52:18.081Z,3.50
2019-05-09T04:54:48.520Z,16.77
2019-05-09T04:57:17.973Z,3.70
2019-05-09T04:59:47.548Z,3.83
2019-05-09T05:02:37.906Z,3.13
2019-05-09T05:05:07.920Z,2.80
2019-05-09T05:07:37.639Z,3.40
2019-05-09T05:10:08.946Z,3.20
2019-05-09T05:12:38.090Z,3.17
2019-05-09T05:15:08.053Z,3.03
2019-05-09T05:17:37.742Z,2.23
2019-05-09T05:20:09.297Z,2.60
2019-05-09T05:22:58.151Z,2.37
2019-05-09T05:25:27.914Z,2.20
2019-05-09T05:27:58.061Z,2.10
2019-05-09T05:30:28.370Z,2.40
2019-05-09T05:33:03.719Z,2.20
2019-05-09T05:35:42.191Z,2.03
2019-05-09T05:38:11.033Z,2.50
2019-05-09T05:40:44.999Z,2.60
2019-05-09T05:43:10.392Z,2.00
2019-05-09T05:45:58.477Z,2.30
2019-05-09T05:48:29.542Z,1.97
2019-05-09T05:50:58.299Z,2.00
2019-05-09T05:53:27.790Z,2.13
2019-05-09T05:55:58.061Z,2.57
2019-05-09T05:58:28.173Z,1.87
2019-05-09T06:00:58.927Z,2.20
2019-05-09T06:03:28.338Z,1.83
2019-05-09T06:05:58.455Z,1.47
2019-05-09T06:08:27.648Z,1.83
2019-05-09T06:10:57.620Z,1.80
2019-05-09T06:13:27.527Z,1.70
2019-05-09T06:15:58.649Z,1.63
2019-05-09T06:18:27.646Z,1.30
2019-05-09T06:20:58.318Z,1.93
2019-05-09T06:23:28.294Z,1.63
2019-05-09T06:25:58.824Z,1.67
2019-05-09T06:28:27.878Z,1.70
2019-05-09T06:30:58.447Z,1.60
2019-05-09T06:33:28.596Z,2.17
2019-05-09T06:35:58.960Z,1.70
2019-05-09T06:38:28.323Z,1.70
2019-05-09T06:40:58.093Z,1.30
2019-05-09T06:43:29.311Z,1.30
2019-05-09T06:46:08.078Z,1.23
2019-05-09T06:48:37.775Z,1.32
2019-05-09T06:51:07.412Z,1.45
2019-05-09T06:53:38.017Z,1.30
2019-05-09T06:56:07.545Z,1.20
2019-05-09T06:58:38.407Z,1.37
2019-05-09T07:01:18.234Z,0.80
2019-05-09T07:03:48.137Z,1.40
2019-05-09T07:06:21.967Z,0.95
2019-05-09T07:09:17.480Z,1.37
2019-05-09T07:11:48.560Z,1.30
2019-05-09T07:14:33.215Z,1.10
2019-05-09T07:17:01.433Z,1.25
2019-05-09T07:19:30.267Z,1.72
2019-05-09T07:22:10.683Z,1.20
2019-05-09T07:25:06.855Z,1.30
2019-05-09T07:27:33.737Z,1.35
2019-05-09T07:30:11.026Z,2.15
2019-05-09T07:32:50.057Z,1.52
2019-05-09T07:35:18.901Z,1.67
2019-05-09T07:37:48.784Z,2.67
2019-05-09T07:40:18.185Z,1.85
2019-05-09T07:42:47.972Z,1.92
2019-05-09T07:45:17.853Z,2.58
2019-05-09T07:47:47.820Z,2.98
2019-05-09T07:50:18.936Z,2.77
2019-05-09T07:52:48.836Z,2.25
2019-05-09T07:55:18.166Z,2.62
2019-05-09T07:57:54.625Z,2.22
2019-05-09T08:00:22.247Z,1.92
2019-05-09T08:02:51.113Z,2.37
2019-05-09T08:05:28.068Z,2.15
2019-05-09T08:07:58.659Z,2.22
2019-05-09T08:10:33.262Z,2.40
2019-05-09T08:13:02.320Z,3.52
2019-05-09T08:15:31.103Z,2.52
2019-05-09T08:17:59.882Z,2.42
2019-05-09T08:20:28.666Z,2.50
2019-05-09T08:23:01.209Z,2.10
2019-05-09T08:25:28.024Z,2.80
2019-05-09T08:27:58.737Z,2.12
2019-05-09T08:30:35.335Z,2.15
2019-05-09T08:32:59.943Z,2.17
2019-05-09T08:35:29.054Z,1.60
2019-05-09T08:37:58.653Z,1.60
2019-05-09T08:40:28.419Z,2.10
2019-05-09T08:42:58.766Z,1.75
2019-05-09T08:45:31.195Z,1.62
2019-05-09T08:47:58.787Z,1.55
2019-05-09T08:50:35.069Z,1.85
2019-05-09T08:53:03.987Z,2.10
2019-05-09T08:55:32.870Z,1.50
2019-05-09T08:58:01.674Z,1.20
2019-05-09T09:00:30.782Z,1.25
2019-05-09T09:02:59.566Z,1.30
2019-05-09T09:05:29.012Z,1.30
2019-05-09T09:07:58.100Z,0.90
2019-05-09T09:10:28.992Z,1.17
2019-05-09T09:12:58.275Z,1.00
2019-05-09T09:15:50.330Z,0.93
2019-05-09T09:17:58.104Z,0.93
2019-05-09T09:20:28.833Z,1.10
2019-05-09T09:22:58.433Z,1.15
2019-05-09T09:25:28.638Z,1.00
2019-05-09T09:27:58.276Z,1.10
2019-05-09T09:30:29.283Z,0.95
2019-05-09T09:32:58.763Z,1.10
2019-05-09T09:35:27.985Z,0.90
2019-05-09T09:37:58.054Z,1.20
2019-05-09T09:40:27.876Z,0.88
2019-05-09T09:42:58.051Z,1.00
2019-05-09T09:45:28.307Z,0.90
2019-05-09T09:47:59.106Z,0.60
2019-05-09T09:50:28.273Z,0.53
2019-05-09T09:52:58.721Z,1.00
2019-05-09T09:55:27.956Z,0.75
2019-05-09T09:57:57.825Z,0.60
2019-05-09T10:01:14.146Z,0.37
2019-05-09T10:03:43.066Z,0.40
2019-05-09T10:06:11.934Z,0.55
2019-05-09T10:08:40.895Z,0.40
2019-05-09T10:11:09.802Z,0.55
2019-05-09T10:13:38.624Z,0.68
2019-05-09T10:16:51.769Z,0.40
2019-05-09T10:19:29.093Z,0.70
2019-05-09T10:21:59.530Z,0.50
2019-05-09T10:24:28.367Z,0.60
2019-05-09T10:27:08.650Z,0.50
2019-05-09T10:29:38.803Z,0.50
2019-05-09T10:32:12.930Z,0.50
2019-05-09T10:34:42.093Z,0.33
2019-05-09T10:37:11.002Z,0.62
2019-05-09T10:39:39.961Z,0.35
2019-05-09T10:42:19.066Z,0.40
2019-05-09T10:44:52.809Z,0.40
2019-05-09T10:47:27.396Z,0.50
2019-05-09T10:49:58.214Z,0.40
2019-05-09T10:52:28.355Z,0.35
2019-05-09T10:54:58.060Z,0.40
2019-05-09T10:57:31.431Z,0.50
2019-05-09T10:59:58.066Z,0.47
2019-05-09T11:02:27.907Z,0.40
2019-05-09T11:04:57.598Z,0.50
2019-05-09T11:07:28.967Z,0.30
2019-05-09T11:09:58.794Z,0.30
2019-05-09T11:12:27.808Z,0.40
2019-05-09T11:14:59.454Z,0.35
2019-05-09T11:17:28.614Z,0.50
2019-05-09T11:19:58.719Z,0.40
2019-05-09T11:22:29.308Z,0.35
2019-05-09T11:24:58.320Z,0.40
2019-05-09T11:27:28.971Z,0.33
2019-05-09T11:29:58.084Z,0.50
2019-05-09T11:32:27.792Z,0.65
2019-05-09T11:34:57.599Z,0.47
2019-05-09T11:37:26.629Z,0.45
2019-05-09T11:39:57.860Z,0.50
2019-05-09T11:42:28.333Z,0.40
2019-05-09T11:44:58.033Z,0.40
2019-05-09T11:47:36.542Z,0.33
2019-05-09T11:49:58.161Z,0.50
2019-05-09T11:52:28.792Z,0.47
2019-05-09T11:54:58.106Z,0.40
2019-05-09T11:57:30.669Z,0.50
2019-05-09T11:59:57.935Z,0.60
2019-05-09T12:02:27.967Z,0.53
2019-05-09T12:04:56.854Z,0.80
2019-05-09T12:07:25.659Z,0.57
2019-05-09T12:09:54.445Z,0.68
2019-05-09T12:12:23.302Z,0.90
2019-05-09T12:14:52.163Z,1.02
2019-05-09T12:17:20.968Z,0.75
2019-05-09T12:19:49.854Z,0.90
2019-05-09T12:22:19.275Z,1.17
2019-05-09T12:24:48.258Z,0.80
2019-05-09T12:27:18.899Z,0.53
2019-05-09T12:29:48.426Z,0.62
2019-05-09T12:32:18.715Z,0.70
2019-05-09T12:34:48.062Z,0.78
2019-05-09T12:37:18.226Z,0.72
2019-05-09T12:39:48.054Z,0.70
2019-05-09T12:42:18.472Z,0.70
2019-05-09T12:44:49.607Z,0.93
2019-05-09T12:47:19.055Z,1.05
2019-05-09T12:49:48.827Z,0.80
2019-05-09T12:52:18.601Z,0.78
2019-05-09T12:54:48.375Z,0.62
2019-05-09T12:57:19.225Z,0.82
2019-05-09T12:59:52.212Z,0.57
2019-05-09T13:02:18.433Z,0.53
2019-05-09T13:04:47.730Z,0.70
2019-05-09T13:07:16.641Z,0.50
2019-05-09T13:09:51.676Z,0.78
2019-05-09T13:12:18.103Z,0.40
2019-05-09T13:14:48.553Z,0.60
2019-05-09T13:17:30.672Z,0.45
2019-05-09T13:19:59.618Z,0.50
2019-05-09T13:22:28.524Z,0.45
2019-05-09T13:24:58.771Z,0.50
2019-05-09T13:27:28.582Z,0.50
2019-05-09T13:29:57.597Z,0.65
2019-05-09T13:32:28.050Z,0.60
2019-05-09T13:34:57.798Z,0.80
2019-05-09T13:37:29.478Z,0.60
2019-05-09T13:39:57.432Z,1.00
2019-05-09T13:42:28.457Z,1.72
2019-05-09T13:44:56.701Z,0.50
2019-05-09T13:47:27.857Z,0.50
2019-05-09T13:49:56.285Z,0.70
2019-05-09T13:52:27.447Z,0.93
2019-05-09T13:54:58.466Z,0.60
2019-05-09T13:57:27.751Z,0.50
2019-05-09T13:59:58.504Z,0.53
2019-05-09T14:02:29.067Z,0.70
2019-05-09T14:04:58.475Z,0.78
2019-05-09T14:07:27.974Z,0.80
2019-05-09T14:09:56.877Z,0.60
2019-05-09T14:12:25.638Z,0.60
2019-05-09T14:14:54.424Z,0.65
2019-05-09T14:17:41.738Z,0.65
2019-05-09T14:19:53.806Z,0.90
2019-05-09T14:22:22.613Z,0.57
2019-05-09T14:24:51.497Z,0.78
2019-05-09T14:27:20.555Z,0.75
2019-05-09T14:29:49.841Z,1.20
2019-05-09T14:32:18.764Z,1.47
2019-05-09T14:34:48.223Z,1.15
2019-05-09T14:37:18.011Z,1.10
2019-05-09T14:39:55.895Z,1.10
2019-05-09T14:42:18.861Z,1.10
2019-05-09T14:44:47.853Z,1.27
2019-05-09T14:47:17.707Z,1.20
2019-05-09T14:49:50.021Z,1.30
2019-05-09T14:52:17.588Z,1.25
2019-05-09T14:54:48.245Z,2.20
2019-05-09T14:57:17.552Z,1.85
2019-05-09T14:59:46.486Z,1.32
2019-05-09T15:02:17.763Z,1.12
2019-05-09T15:04:48.407Z,1.20
2019-05-09T15:07:18.649Z,1.47
2019-05-09T15:09:47.038Z,1.32
2019-05-09T15:12:15.827Z,1.57
2019-05-09T15:14:44.595Z,1.45
2019-05-09T15:17:13.382Z,1.20
2019-05-09T15:19:56.488Z,1.35
2019-05-09T15:22:12.945Z,1.42
2019-05-09T15:24:41.713Z,1.30
2019-05-09T15:27:10.849Z,1.40
2019-05-09T15:29:39.638Z,1.22
2019-05-09T15:32:12.014Z,1.25
2019-05-09T15:34:39.333Z,1.22
2019-05-09T15:37:08.880Z,1.00
2019-05-09T15:39:38.116Z,0.93
2019-05-09T15:42:07.525Z,1.22
2019-05-09T15:44:36.756Z,1.02
2019-05-09T15:47:11.367Z,1.00
2019-05-09T15:49:40.257Z,1.00
2019-05-09T15:52:09.239Z,0.88
2019-05-09T15:54:38.729Z,1.22
2019-05-09T15:57:08.645Z,1.00
2019-05-09T15:59:38.970Z,0.90
2019-05-09T16:02:09.151Z,0.85
2019-05-09T16:04:40.038Z,0.90
2019-05-09T16:07:08.889Z,0.80
2019-05-09T16:09:37.940Z,1.10
2019-05-09T16:12:07.782Z,31.77
2019-05-09T16:14:38.074Z,2.33
2019-05-09T16:17:07.864Z,4.65
2019-05-09T16:19:37.778Z,11.60
2019-05-09T16:22:08.030Z,1.00
2019-05-09T16:24:38.091Z,1.05
2019-05-09T16:27:08.428Z,0.60
2019-05-09T16:29:38.257Z,0.70
2019-05-09T16:32:08.848Z,1.00
2019-05-09T16:34:38.732Z,0.70
2019-05-09T16:37:08.073Z,1.20
2019-05-09T16:39:37.873Z,1.20
2019-05-09T16:42:07.130Z,0.93
2019-05-09T16:44:37.747Z,0.80
2019-05-09T16:47:08.349Z,0.88
2019-05-09T16:49:38.697Z,1.20
2019-05-09T16:52:07.803Z,1.35
2019-05-09T16:54:39.302Z,1.95
2019-05-09T16:57:08.418Z,1.20
2019-05-09T16:59:38.839Z,1.00
2019-05-09T17:02:18.732Z,1.22
2019-05-09T17:04:38.735Z,1.25
2019-05-09T17:07:08.365Z,1.40
2019-05-09T17:09:41.267Z,1.50
2019-05-09T17:12:10.121Z,1.00
2019-05-09T17:14:38.902Z,1.32
2019-05-09T17:17:08.400Z,0.95
2019-05-09T17:19:37.808Z,1.22
2019-05-09T17:22:13.977Z,4.20
2019-05-09T17:24:44.046Z,0.95
2019-05-09T17:27:12.975Z,0.88
2019-05-09T17:29:41.854Z,1.20
2019-05-09T17:32:10.770Z,2.20
2019-05-09T17:34:42.278Z,0.75
2019-05-09T17:37:10.125Z,1.02
2019-05-09T17:39:38.976Z,0.90
2019-05-09T17:42:07.831Z,0.70
2019-05-09T17:44:36.701Z,0.80
2019-05-09T17:47:05.555Z,0.70
2019-05-09T17:49:34.322Z,0.78
2019-05-09T17:52:03.115Z,0.70
2019-05-09T17:54:31.956Z,0.85
2019-05-09T17:57:01.301Z,0.70
2019-05-09T17:59:30.078Z,0.80
2019-05-09T18:01:58.958Z,1.00
2019-05-09T18:04:28.774Z,0.78
2019-05-09T18:06:58.555Z,0.93
2019-05-09T18:09:28.537Z,0.95
2019-05-09T18:11:57.943Z,0.90
2019-05-09T18:14:27.677Z,0.98
2019-05-09T18:16:58.153Z,0.80
2019-05-09T18:19:29.352Z,0.97
2019-05-09T18:21:57.981Z,0.80
2019-05-09T18:24:28.735Z,0.88
2019-05-09T18:26:58.211Z,0.67
2019-05-09T18:29:27.545Z,0.60
2019-05-09T18:32:19.597Z,0.70
2019-05-09T18:34:48.681Z,0.97
2019-05-09T18:37:17.553Z,0.90
2019-05-09T18:39:48.365Z,1.03
2019-05-09T18:42:17.929Z,0.87
2019-05-09T18:44:47.659Z,0.80
2019-05-09T18:47:18.470Z,0.80
2019-05-09T18:49:47.034Z,0.70
2019-05-09T18:52:15.834Z,1.20
2019-05-09T18:54:44.844Z,1.10
2019-05-09T18:57:13.692Z,1.20
2019-05-09T18:59:42.850Z,0.87
2019-05-09T19:02:11.693Z,1.17
2019-05-09T19:04:40.465Z,1.20
2019-05-09T19:07:21.774Z,0.90
2019-05-09T19:09:40.129Z,0.80
2019-05-09T19:12:08.989Z,1.10
2019-05-09T19:14:37.825Z,1.30
2019-05-09T19:17:41.161Z,0.80
2019-05-09T19:20:24.024Z,0.97
2019-05-09T19:22:53.277Z,0.90
2019-05-09T19:25:22.437Z,0.70
2019-05-09T19:27:51.225Z,0.80
2019-05-09T19:30:20.139Z,0.70
2019-05-09T19:32:49.097Z,0.77
2019-05-09T19:35:17.930Z,0.90
2019-05-09T19:37:46.928Z,1.07
2019-05-09T19:40:19.991Z,1.03
2019-05-09T19:42:46.258Z,0.90
2019-05-09T19:45:15.470Z,0.90
2019-05-09T19:47:44.489Z,1.00
2019-05-09T19:50:13.729Z,0.73
2019-05-09T19:52:42.578Z,0.90
2019-05-09T19:55:11.509Z,0.90
2019-05-09T19:57:40.573Z,1.07
2019-05-09T20:00:10.242Z,1.00
2019-05-09T20:02:40.749Z,89.23
2019-05-09T20:05:10.674Z,10.07
2019-05-09T20:07:39.613Z,5.93
2019-05-09T20:10:26.412Z,15.80
2019-05-09T20:13:13.394Z,36.97
2019-05-09T20:15:42.360Z,4.90
2019-05-09T20:18:11.243Z,5.63
2019-05-09T20:20:40.018Z,11.13
2019-05-09T20:23:08.864Z,13.10
2019-05-09T20:25:37.645Z,41.43
2019-05-09T20:28:06.498Z,33.93
2019-05-09T20:30:35.376Z,28.77
2019-05-09T20:33:04.206Z,36.10
2019-05-09T20:35:33.004Z,24.67
2019-05-09T20:38:01.961Z,25.47
2019-05-09T20:40:30.901Z,28.00
2019-05-09T20:42:59.870Z,22.03
2019-05-09T20:45:28.900Z,9.97
2019-05-09T20:47:57.850Z,21.57
2019-05-09T20:50:26.813Z,30.70
2019-05-09T20:53:08.520Z,25.80
2019-05-09T20:55:26.538Z,19.03
2019-05-09T20:57:55.567Z,57.43
2019-05-09T21:00:24.686Z,16.93
2019-05-09T21:02:53.769Z,27.37
2019-05-09T21:05:22.756Z,20.57
2019-05-09T21:07:51.703Z,21.93
2019-05-09T21:10:20.970Z,10.20
2019-05-09T21:12:50.147Z,10.80
2019-05-09T21:15:19.545Z,11.40
2019-05-09T21:17:49.061Z,11.53
2019-05-09T21:20:18.560Z,13.17
2019-05-09T21:22:47.843Z,15.00
2019-05-09T21:25:17.242Z,16.73
2019-05-09T21:27:46.700Z,21.73
2019-05-09T21:30:16.970Z,19.27
2019-05-09T21:32:46.621Z,15.03
2019-05-09T21:35:15.548Z,15.50
2019-05-09T21:37:44.471Z,17.93
2019-05-09T21:40:13.496Z,23.37
2019-05-09T21:42:42.500Z,31.63
2019-05-09T21:45:11.615Z,22.47
2019-05-09T21:47:40.538Z,20.37
2019-05-09T21:50:09.700Z,26.23
2019-05-09T21:52:38.747Z,33.23
2019-05-09T21:55:08.117Z,31.43
2019-05-09T21:57:37.086Z,32.57
2019-05-09T22:00:09.759Z,31.83
2019-05-09T22:02:38.805Z,30.63
2019-05-09T22:05:08.052Z,28.03
2019-05-09T22:07:37.191Z,23.83
2019-05-09T22:10:06.686Z,27.03
2019-05-09T22:12:35.873Z,28.03
2019-05-09T22:15:05.910Z,35.07
2019-05-09T22:17:38.961Z,23.47
2019-05-09T22:20:10.928Z,19.47
2019-05-09T22:22:40.109Z,21.00
2019-05-09T22:25:09.625Z,14.23
2019-05-09T22:27:38.823Z,15.80
2019-05-09T22:30:08.564Z,13.60
2019-05-09T22:32:37.540Z,12.47
2019-05-09T22:35:06.775Z,11.63
2019-05-09T22:37:35.829Z,10.07
2019-05-09T22:40:04.911Z,8.83
2019-05-09T22:42:33.823Z,8.43
2019-05-09T22:45:02.857Z,7.83
2019-05-09T22:47:31.790Z,10.13
2019-05-09T22:50:00.783Z,8.43
2019-05-09T22:52:29.720Z,10.10
2019-05-09T22:54:58.653Z,10.87
2019-05-09T22:57:27.580Z,12.30
2019-05-09T22:59:56.524Z,16.43
2019-05-09T23:02:25.537Z,20.30
2019-05-09T23:04:54.393Z,7.73
2019-05-09T23:07:23.429Z,14.77
2019-05-09T23:09:52.387Z,10.10
2019-05-09T23:12:21.255Z,5.77
2019-05-09T23:14:50.196Z,6.50
2019-05-09T23:17:19.303Z,9.17
2019-05-09T23:19:48.207Z,10.77
2019-05-09T23:22:17.307Z,9.47
2019-05-09T23:24:46.238Z,9.57
2019-05-09T23:27:17.043Z,8.90
2019-05-09T23:29:46.042Z,7.03
2019-05-09T23:32:27.663Z,9.47
2019-05-09T23:34:56.661Z,7.93
2019-05-09T23:37:25.571Z,6.47
2019-05-09T23:39:54.663Z,7.70
2019-05-09T23:42:23.719Z,7.13
2019-05-09T23:44:52.779Z,6.20
2019-05-09T23:47:21.792Z,5.73
2019-05-09T23:49:50.756Z,5.40
2019-05-09T23:52:19.713Z,6.20
2019-05-09T23:55:06.801Z,6.10
2019-05-09T23:57:53.810Z,6.13
